sensor_id;sensor_type;location;lat;lon;timestamp;P1;durP1;ratioP1;P2;durP2;ratioP2
4555;SDS011;2290;48.674;9.018;2023-08-06T00:01:49;2.60;;;1.87;;
4555;SDS011;2290;48.674;9.018;2023-08-06T00:04:15;2.90;;;1.97;;
4555;SDS011;2290;48.674;9.018;2023-08-06T00:06:40;2.97;;;2.40;;
4555;SDS011;2290;48.674;9.018;2023-08-06T00:09:06;2.53;;;2.27;;
4555;SDS011;2290;48.674;9.018;2023-08-06T00:11:31;2.10;;;1.90;;
4555;SDS011;2290;48.674;9.018;2023-08-06T00:13:57;2.97;;;2.10;;
4555;SDS011;2290;48.674;9.018;2023-08-06T00:16:23;4.83;;;2.27;;
4555;SDS011;2290;48.674;9.018;2023-08-06T00:18:48;2.77;;;2.30;;
4555;SDS011;2290;48.674;9.018;2023-08-06T00:21:14;3.87;;;2.63;;
4555;SDS011;2290;48.674;9.018;2023-08-06T00:23:40;4.97;;;2.37;;
4555;SDS011;2290;48.674;9.018;2023-08-06T00:26:06;4.23;;;2.37;;
4555;SDS011;2290;48.674;9.018;2023-08-06T00:28:31;2.63;;;2.23;;
4555;SDS011;2290;48.674;9.018;2023-08-06T00:30:57;3.43;;;2.67;;
4555;SDS011;2290;48.674;9.018;2023-08-06T00:33:23;2.70;;;2.30;;
4555;SDS011;2290;48.674;9.018;2023-08-06T00:35:49;2.80;;;2.30;;
4555;SDS011;2290;48.674;9.018;2023-08-06T00:38:14;2.73;;;2.27;;
4555;SDS011;2290;48.674;9.018;2023-08-06T00:40:40;3.10;;;2.27;;
4555;SDS011;2290;48.674;9.018;2023-08-06T00:43:06;3.23;;;2.63;;
4555;SDS011;2290;48.674;9.018;2023-08-06T00:45:33;2.50;;;2.27;;
4555;SDS011;2290;48.674;9.018;2023-08-06T00:48:01;2.70;;;2.40;;
4555;SDS011;2290;48.674;9.018;2023-08-06T00:50:28;3.90;;;2.20;;
4555;SDS011;2290;48.674;9.018;2023-08-06T00:52:54;2.80;;;2.50;;
4555;SDS011;2290;48.674;9.018;2023-08-06T00:55:20;3.20;;;2.23;;
4555;SDS011;2290;48.674;9.018;2023-08-06T00:57:45;3.13;;;2.70;;
4555;SDS011;2290;48.674;9.018;2023-08-06T01:00:11;2.93;;;2.43;;
4555;SDS011;2290;48.674;9.018;2023-08-06T01:02:37;3.50;;;2.27;;
4555;SDS011;2290;48.674;9.018;2023-08-06T01:05:03;3.70;;;2.33;;
4555;SDS011;2290;48.674;9.018;2023-08-06T01:07:51;3.43;;;2.70;;
4555;SDS011;2290;48.674;9.018;2023-08-06T01:13:06;4.80;;;2.77;;
4555;SDS011;2290;48.674;9.018;2023-08-06T01:15:43;3.00;;;2.60;;
4555;SDS011;2290;48.674;9.018;2023-08-06T01:18:12;2.73;;;2.47;;
4555;SDS011;2290;48.674;9.018;2023-08-06T01:20:38;3.33;;;2.63;;
4555;SDS011;2290;48.674;9.018;2023-08-06T01:23:03;2.77;;;2.30;;
4555;SDS011;2290;48.674;9.018;2023-08-06T01:28:30;3.80;;;2.60;;
4555;SDS011;2290;48.674;9.018;2023-08-06T01:31:10;3.63;;;2.23;;
4555;SDS011;2290;48.674;9.018;2023-08-06T01:33:43;3.50;;;2.50;;
4555;SDS011;2290;48.674;9.018;2023-08-06T01:36:12;2.80;;;2.50;;
4555;SDS011;2290;48.674;9.018;2023-08-06T01:38:40;2.90;;;2.37;;
4555;SDS011;2290;48.674;9.018;2023-08-06T01:41:06;3.60;;;2.57;;
4555;SDS011;2290;48.674;9.018;2023-08-06T01:43:31;4.20;;;2.60;;
4555;SDS011;2290;48.674;9.018;2023-08-06T01:45:57;3.20;;;2.67;;
4555;SDS011;2290;48.674;9.018;2023-08-06T01:48:22;3.10;;;2.33;;
4555;SDS011;2290;48.674;9.018;2023-08-06T01:50:48;2.90;;;2.40;;
4555;SDS011;2290;48.674;9.018;2023-08-06T01:53:13;4.20;;;2.30;;
4555;SDS011;2290;48.674;9.018;2023-08-06T01:55:39;3.50;;;2.30;;
4555;SDS011;2290;48.674;9.018;2023-08-06T01:58:05;3.43;;;2.53;;
4555;SDS011;2290;48.674;9.018;2023-08-06T02:00:30;2.90;;;2.40;;
4555;SDS011;2290;48.674;9.018;2023-08-06T02:02:56;3.03;;;2.40;;
4555;SDS011;2290;48.674;9.018;2023-08-06T02:05:21;3.40;;;2.37;;
4555;SDS011;2290;48.674;9.018;2023-08-06T02:07:47;3.47;;;2.20;;
4555;SDS011;2290;48.674;9.018;2023-08-06T02:10:12;3.27;;;2.20;;
4555;SDS011;2290;48.674;9.018;2023-08-06T02:12:38;2.27;;;2.07;;
4555;SDS011;2290;48.674;9.018;2023-08-06T02:15:03;2.80;;;2.57;;
4555;SDS011;2290;48.674;9.018;2023-08-06T02:17:29;4.63;;;4.00;;
4555;SDS011;2290;48.674;9.018;2023-08-06T02:19:55;2.80;;;2.27;;
4555;SDS011;2290;48.674;9.018;2023-08-06T02:22:21;2.50;;;2.30;;
4555;SDS011;2290;48.674;9.018;2023-08-06T02:24:48;2.87;;;2.03;;
4555;SDS011;2290;48.674;9.018;2023-08-06T02:27:14;3.70;;;2.53;;
4555;SDS011;2290;48.674;9.018;2023-08-06T02:29:40;2.27;;;2.07;;
4555;SDS011;2290;48.674;9.018;2023-08-06T02:32:06;3.30;;;2.57;;
4555;SDS011;2290;48.674;9.018;2023-08-06T02:34:32;4.30;;;2.17;;
4555;SDS011;2290;48.674;9.018;2023-08-06T02:36:58;2.90;;;2.10;;
4555;SDS011;2290;48.674;9.018;2023-08-06T02:39:23;3.97;;;2.33;;
4555;SDS011;2290;48.674;9.018;2023-08-06T02:41:49;3.33;;;2.10;;
4555;SDS011;2290;48.674;9.018;2023-08-06T02:44:14;2.27;;;2.03;;
4555;SDS011;2290;48.674;9.018;2023-08-06T02:46:40;2.90;;;2.30;;
4555;SDS011;2290;48.674;9.018;2023-08-06T02:49:06;2.97;;;2.10;;
4555;SDS011;2290;48.674;9.018;2023-08-06T02:51:31;2.93;;;1.90;;
4555;SDS011;2290;48.674;9.018;2023-08-06T02:53:57;4.77;;;2.50;;
4555;SDS011;2290;48.674;9.018;2023-08-06T02:56:22;2.27;;;2.03;;
4555;SDS011;2290;48.674;9.018;2023-08-06T02:58:48;2.90;;;1.90;;
4555;SDS011;2290;48.674;9.018;2023-08-06T03:01:13;2.03;;;1.70;;
4555;SDS011;2290;48.674;9.018;2023-08-06T03:03:39;3.87;;;2.27;;
4555;SDS011;2290;48.674;9.018;2023-08-06T03:06:05;2.37;;;1.77;;
4555;SDS011;2290;48.674;9.018;2023-08-06T03:08:30;2.60;;;2.40;;
4555;SDS011;2290;48.674;9.018;2023-08-06T03:10:56;2.30;;;2.00;;
4555;SDS011;2290;48.674;9.018;2023-08-06T03:13:22;3.10;;;2.00;;
4555;SDS011;2290;48.674;9.018;2023-08-06T03:15:57;2.27;;;1.70;;
4555;SDS011;2290;48.674;9.018;2023-08-06T03:18:24;3.27;;;2.00;;
4555;SDS011;2290;48.674;9.018;2023-08-06T03:20:51;3.50;;;1.80;;
4555;SDS011;2290;48.674;9.018;2023-08-06T03:23:17;2.70;;;2.10;;
4555;SDS011;2290;48.674;9.018;2023-08-06T03:25:43;2.13;;;1.90;;
4555;SDS011;2290;48.674;9.018;2023-08-06T03:28:09;3.33;;;2.03;;
4555;SDS011;2290;48.674;9.018;2023-08-06T03:30:35;2.30;;;1.97;;
4555;SDS011;2290;48.674;9.018;2023-08-06T03:33:00;3.23;;;2.00;;
4555;SDS011;2290;48.674;9.018;2023-08-06T03:35:26;2.00;;;1.63;;
4555;SDS011;2290;48.674;9.018;2023-08-06T03:37:51;2.40;;;1.80;;
4555;SDS011;2290;48.674;9.018;2023-08-06T03:40:17;3.23;;;1.63;;
4555;SDS011;2290;48.674;9.018;2023-08-06T03:42:42;2.37;;;1.83;;
4555;SDS011;2290;48.674;9.018;2023-08-06T03:45:08;2.80;;;1.73;;
4555;SDS011;2290;48.674;9.018;2023-08-06T03:47:34;2.83;;;1.77;;
4555;SDS011;2290;48.674;9.018;2023-08-06T03:49:59;3.67;;;2.20;;
4555;SDS011;2290;48.674;9.018;2023-08-06T03:52:25;2.60;;;1.90;;
4555;SDS011;2290;48.674;9.018;2023-08-06T03:54:51;2.20;;;1.90;;
4555;SDS011;2290;48.674;9.018;2023-08-06T03:57:16;2.80;;;1.87;;
4555;SDS011;2290;48.674;9.018;2023-08-06T03:59:42;2.80;;;2.03;;
4555;SDS011;2290;48.674;9.018;2023-08-06T04:02:08;2.67;;;1.77;;
4555;SDS011;2290;48.674;9.018;2023-08-06T04:04:33;2.57;;;2.03;;
4555;SDS011;2290;48.674;9.018;2023-08-06T04:06:59;2.90;;;1.70;;
4555;SDS011;2290;48.674;9.018;2023-08-06T04:09:24;4.47;;;1.90;;
4555;SDS011;2290;48.674;9.018;2023-08-06T04:11:50;2.03;;;1.50;;
4555;SDS011;2290;48.674;9.018;2023-08-06T04:14:15;2.23;;;1.83;;
4555;SDS011;2290;48.674;9.018;2023-08-06T04:16:41;2.07;;;1.60;;
4555;SDS011;2290;48.674;9.018;2023-08-06T04:19:06;2.03;;;1.60;;
4555;SDS011;2290;48.674;9.018;2023-08-06T04:21:32;2.90;;;1.60;;
4555;SDS011;2290;48.674;9.018;2023-08-06T04:23:57;4.00;;;1.80;;
4555;SDS011;2290;48.674;9.018;2023-08-06T04:26:23;4.07;;;1.50;;
4555;SDS011;2290;48.674;9.018;2023-08-06T04:28:48;2.43;;;1.50;;
4555;SDS011;2290;48.674;9.018;2023-08-06T04:31:14;3.37;;;1.60;;
4555;SDS011;2290;48.674;9.018;2023-08-06T04:33:40;1.63;;;1.37;;
4555;SDS011;2290;48.674;9.018;2023-08-06T04:36:05;1.63;;;1.50;;
4555;SDS011;2290;48.674;9.018;2023-08-06T04:38:31;2.23;;;1.30;;
4555;SDS011;2290;48.674;9.018;2023-08-06T04:40:57;1.60;;;1.30;;
4555;SDS011;2290;48.674;9.018;2023-08-06T04:43:23;3.23;;;1.37;;
4555;SDS011;2290;48.674;9.018;2023-08-06T04:45:49;2.20;;;1.57;;
4555;SDS011;2290;48.674;9.018;2023-08-06T04:48:16;1.20;;;1.00;;
4555;SDS011;2290;48.674;9.018;2023-08-06T04:50:46;1.37;;;1.07;;
4555;SDS011;2290;48.674;9.018;2023-08-06T04:53:12;4.90;;;1.50;;
4555;SDS011;2290;48.674;9.018;2023-08-06T04:55:39;2.43;;;1.40;;
4555;SDS011;2290;48.674;9.018;2023-08-06T04:58:04;3.03;;;1.53;;
4555;SDS011;2290;48.674;9.018;2023-08-06T05:00:31;2.00;;;1.10;;
4555;SDS011;2290;48.674;9.018;2023-08-06T05:02:59;1.37;;;0.90;;
4555;SDS011;2290;48.674;9.018;2023-08-06T05:05:25;1.40;;;1.10;;
4555;SDS011;2290;48.674;9.018;2023-08-06T05:07:51;1.73;;;1.10;;
4555;SDS011;2290;48.674;9.018;2023-08-06T05:10:18;2.80;;;1.17;;
4555;SDS011;2290;48.674;9.018;2023-08-06T05:12:44;2.07;;;1.30;;
4555;SDS011;2290;48.674;9.018;2023-08-06T05:15:09;2.40;;;1.10;;
4555;SDS011;2290;48.674;9.018;2023-08-06T05:17:35;1.10;;;0.83;;
4555;SDS011;2290;48.674;9.018;2023-08-06T05:20:01;2.17;;;1.50;;
4555;SDS011;2290;48.674;9.018;2023-08-06T05:22:26;2.03;;;0.90;;
4555;SDS011;2290;48.674;9.018;2023-08-06T05:24:52;2.80;;;1.17;;
4555;SDS011;2290;48.674;9.018;2023-08-06T05:27:17;1.20;;;1.00;;
4555;SDS011;2290;48.674;9.018;2023-08-06T05:29:45;1.20;;;1.00;;
4555;SDS011;2290;48.674;9.018;2023-08-06T05:32:12;1.00;;;0.80;;
4555;SDS011;2290;48.674;9.018;2023-08-06T05:34:38;1.30;;;0.90;;
4555;SDS011;2290;48.674;9.018;2023-08-06T05:37:04;1.40;;;1.10;;
4555;SDS011;2290;48.674;9.018;2023-08-06T05:39:30;1.40;;;0.90;;
4555;SDS011;2290;48.674;9.018;2023-08-06T05:41:55;4.00;;;1.20;;
4555;SDS011;2290;48.674;9.018;2023-08-06T05:44:21;1.57;;;1.20;;
4555;SDS011;2290;48.674;9.018;2023-08-06T05:46:48;1.70;;;1.10;;
4555;SDS011;2290;48.674;9.018;2023-08-06T05:49:14;1.30;;;0.90;;
4555;SDS011;2290;48.674;9.018;2023-08-06T05:51:40;1.10;;;0.80;;
4555;SDS011;2290;48.674;9.018;2023-08-06T05:54:06;2.97;;;1.13;;
4555;SDS011;2290;48.674;9.018;2023-08-06T05:56:32;1.43;;;1.00;;
4555;SDS011;2290;48.674;9.018;2023-08-06T05:58:57;3.40;;;0.93;;
4555;SDS011;2290;48.674;9.018;2023-08-06T06:01:23;1.73;;;0.90;;
4555;SDS011;2290;48.674;9.018;2023-08-06T06:03:48;3.60;;;1.50;;
4555;SDS011;2290;48.674;9.018;2023-08-06T06:06:14;1.53;;;1.07;;
4555;SDS011;2290;48.674;9.018;2023-08-06T06:08:39;2.83;;;1.33;;
4555;SDS011;2290;48.674;9.018;2023-08-06T06:11:05;1.80;;;1.00;;
4555;SDS011;2290;48.674;9.018;2023-08-06T06:13:30;1.30;;;1.00;;
4555;SDS011;2290;48.674;9.018;2023-08-06T06:15:56;1.70;;;0.93;;
4555;SDS011;2290;48.674;9.018;2023-08-06T06:18:22;3.73;;;1.00;;
4555;SDS011;2290;48.674;9.018;2023-08-06T06:23:41;1.37;;;1.00;;
4555;SDS011;2290;48.674;9.018;2023-08-06T06:26:22;2.70;;;1.00;;
4555;SDS011;2290;48.674;9.018;2023-08-06T06:28:50;2.40;;;1.20;;
4555;SDS011;2290;48.674;9.018;2023-08-06T06:31:16;1.00;;;0.90;;
4555;SDS011;2290;48.674;9.018;2023-08-06T06:33:41;1.10;;;0.90;;
4555;SDS011;2290;48.674;9.018;2023-08-06T06:36:07;2.77;;;0.97;;
4555;SDS011;2290;48.674;9.018;2023-08-06T06:38:33;1.43;;;0.80;;
4555;SDS011;2290;48.674;9.018;2023-08-06T06:40:59;2.47;;;1.17;;
4555;SDS011;2290;48.674;9.018;2023-08-06T06:43:26;3.40;;;1.73;;
4555;SDS011;2290;48.674;9.018;2023-08-06T06:45:58;1.67;;;1.03;;
4555;SDS011;2290;48.674;9.018;2023-08-06T06:48:32;1.00;;;0.80;;
4555;SDS011;2290;48.674;9.018;2023-08-06T06:51:06;1.30;;;0.90;;
4555;SDS011;2290;48.674;9.018;2023-08-06T06:53:32;2.43;;;1.23;;
4555;SDS011;2290;48.674;9.018;2023-08-06T06:56:01;1.60;;;1.00;;
4555;SDS011;2290;48.674;9.018;2023-08-06T06:58:28;1.00;;;0.90;;
4555;SDS011;2290;48.674;9.018;2023-08-06T07:00:53;2.40;;;1.07;;
4555;SDS011;2290;48.674;9.018;2023-08-06T07:03:21;1.17;;;0.80;;
4555;SDS011;2290;48.674;9.018;2023-08-06T07:05:46;1.10;;;0.80;;
4555;SDS011;2290;48.674;9.018;2023-08-06T07:08:15;1.43;;;1.20;;
4555;SDS011;2290;48.674;9.018;2023-08-06T07:11:16;1.83;;;0.90;;
4555;SDS011;2290;48.674;9.018;2023-08-06T07:13:42;2.27;;;1.10;;
4555;SDS011;2290;48.674;9.018;2023-08-06T07:16:09;1.27;;;1.07;;
4555;SDS011;2290;48.674;9.018;2023-08-06T07:18:34;0.97;;;0.80;;
4555;SDS011;2290;48.674;9.018;2023-08-06T07:21:07;1.00;;;0.77;;
4555;SDS011;2290;48.674;9.018;2023-08-06T07:23:53;1.00;;;0.80;;
4555;SDS011;2290;48.674;9.018;2023-08-06T07:26:25;1.03;;;0.80;;
4555;SDS011;2290;48.674;9.018;2023-08-06T07:28:52;1.30;;;0.83;;
4555;SDS011;2290;48.674;9.018;2023-08-06T07:31:17;1.03;;;0.80;;
4555;SDS011;2290;48.674;9.018;2023-08-06T07:33:43;0.90;;;0.80;;
4555;SDS011;2290;48.674;9.018;2023-08-06T07:36:10;0.80;;;0.63;;
4555;SDS011;2290;48.674;9.018;2023-08-06T07:38:37;1.20;;;0.90;;
4555;SDS011;2290;48.674;9.018;2023-08-06T07:41:03;0.90;;;0.77;;
4555;SDS011;2290;48.674;9.018;2023-08-06T07:43:30;0.90;;;0.70;;
4555;SDS011;2290;48.674;9.018;2023-08-06T07:45:59;1.30;;;0.87;;
4555;SDS011;2290;48.674;9.018;2023-08-06T07:48:26;0.93;;;0.77;;
4555;SDS011;2290;48.674;9.018;2023-08-06T07:50:53;1.00;;;0.80;;
4555;SDS011;2290;48.674;9.018;2023-08-06T07:53:25;0.90;;;0.80;;
4555;SDS011;2290;48.674;9.018;2023-08-06T07:55:58;0.80;;;0.60;;
4555;SDS011;2290;48.674;9.018;2023-08-06T07:58:27;0.90;;;0.70;;
4555;SDS011;2290;48.674;9.018;2023-08-06T08:00:55;2.90;;;0.70;;
4555;SDS011;2290;48.674;9.018;2023-08-06T08:03:20;0.90;;;0.70;;
4555;SDS011;2290;48.674;9.018;2023-08-06T08:05:47;2.10;;;0.77;;
4555;SDS011;2290;48.674;9.018;2023-08-06T08:08:14;0.80;;;0.60;;
4555;SDS011;2290;48.674;9.018;2023-08-06T08:10:51;0.87;;;0.67;;
4555;SDS011;2290;48.674;9.018;2023-08-06T08:13:54;0.80;;;0.60;;
4555;SDS011;2290;48.674;9.018;2023-08-06T08:16:27;0.97;;;0.60;;
4555;SDS011;2290;48.674;9.018;2023-08-06T08:18:52;0.90;;;0.70;;
4555;SDS011;2290;48.674;9.018;2023-08-06T08:21:18;0.80;;;0.60;;
4555;SDS011;2290;48.674;9.018;2023-08-06T08:23:44;0.80;;;0.60;;
4555;SDS011;2290;48.674;9.018;2023-08-06T08:26:12;0.80;;;0.60;;
4555;SDS011;2290;48.674;9.018;2023-08-06T08:29:07;2.10;;;0.73;;
4555;SDS011;2290;48.674;9.018;2023-08-06T08:31:34;0.80;;;0.60;;
4555;SDS011;2290;48.674;9.018;2023-08-06T08:34:04;1.00;;;0.70;;
4555;SDS011;2290;48.674;9.018;2023-08-06T08:36:31;0.80;;;0.60;;
4555;SDS011;2290;48.674;9.018;2023-08-06T08:38:58;0.90;;;0.60;;
4555;SDS011;2290;48.674;9.018;2023-08-06T08:41:27;0.97;;;0.70;;
4555;SDS011;2290;48.674;9.018;2023-08-06T08:43:56;2.90;;;0.80;;
4555;SDS011;2290;48.674;9.018;2023-08-06T08:46:26;1.53;;;0.80;;
4555;SDS011;2290;48.674;9.018;2023-08-06T08:49:07;0.80;;;0.70;;
4555;SDS011;2290;48.674;9.018;2023-08-06T08:52:42;1.00;;;0.77;;
4555;SDS011;2290;48.674;9.018;2023-08-06T08:55:33;1.00;;;0.70;;
4555;SDS011;2290;48.674;9.018;2023-08-06T08:58:02;1.10;;;0.70;;
4555;SDS011;2290;48.674;9.018;2023-08-06T09:00:31;0.90;;;0.70;;
4555;SDS011;2290;48.674;9.018;2023-08-06T09:02:57;0.80;;;0.60;;
4555;SDS011;2290;48.674;9.018;2023-08-06T09:05:24;0.90;;;0.63;;
4555;SDS011;2290;48.674;9.018;2023-08-06T09:08:01;1.73;;;0.70;;
4555;SDS011;2290;48.674;9.018;2023-08-06T09:10:43;0.90;;;0.60;;
4555;SDS011;2290;48.674;9.018;2023-08-06T09:13:12;0.93;;;0.70;;
4555;SDS011;2290;48.674;9.018;2023-08-06T09:15:44;0.90;;;0.60;;
4555;SDS011;2290;48.674;9.018;2023-08-06T09:18:25;0.97;;;0.70;;
4555;SDS011;2290;48.674;9.018;2023-08-06T09:22:11;1.00;;;0.77;;
4555;SDS011;2290;48.674;9.018;2023-08-06T09:25:24;0.90;;;0.70;;
4555;SDS011;2290;48.674;9.018;2023-08-06T09:28:37;0.90;;;0.70;;
4555;SDS011;2290;48.674;9.018;2023-08-06T09:31:11;0.90;;;0.70;;
4555;SDS011;2290;48.674;9.018;2023-08-06T09:34:25;1.70;;;1.20;;
4555;SDS011;2290;48.674;9.018;2023-08-06T09:44:38;1.30;;;0.80;;
4555;SDS011;2290;48.674;9.018;2023-08-06T09:47:33;0.80;;;0.60;;
4555;SDS011;2290;48.674;9.018;2023-08-06T09:51:24;1.60;;;0.93;;
4555;SDS011;2290;48.674;9.018;2023-08-06T09:53:53;0.90;;;0.70;;
4555;SDS011;2290;48.674;9.018;2023-08-06T09:56:24;0.90;;;0.70;;
4555;SDS011;2290;48.674;9.018;2023-08-06T09:59:07;1.10;;;0.80;;
4555;SDS011;2290;48.674;9.018;2023-08-06T10:02:31;1.30;;;1.10;;
4555;SDS011;2290;48.674;9.018;2023-08-06T10:05:15;0.80;;;0.60;;
4555;SDS011;2290;48.674;9.018;2023-08-06T10:07:42;0.80;;;0.70;;
4555;SDS011;2290;48.674;9.018;2023-08-06T10:10:12;1.10;;;1.00;;
4555;SDS011;2290;48.674;9.018;2023-08-06T10:12:59;1.80;;;0.80;;
4555;SDS011;2290;48.674;9.018;2023-08-06T10:15:28;1.73;;;1.10;;
4555;SDS011;2290;48.674;9.018;2023-08-06T10:21:35;1.30;;;0.90;;
4555;SDS011;2290;48.674;9.018;2023-08-06T10:24:52;1.00;;;0.80;;
4555;SDS011;2290;48.674;9.018;2023-08-06T10:27:34;1.27;;;0.90;;
4555;SDS011;2290;48.674;9.018;2023-08-06T10:30:52;1.37;;;0.70;;
4555;SDS011;2290;48.674;9.018;2023-08-06T10:33:18;0.90;;;0.63;;
4555;SDS011;2290;48.674;9.018;2023-08-06T10:35:47;0.80;;;0.70;;
4555;SDS011;2290;48.674;9.018;2023-08-06T10:38:35;2.00;;;0.90;;
4555;SDS011;2290;48.674;9.018;2023-08-06T10:41:09;0.90;;;0.70;;
4555;SDS011;2290;48.674;9.018;2023-08-06T10:43:42;1.00;;;0.70;;
4555;SDS011;2290;48.674;9.018;2023-08-06T10:46:10;1.00;;;0.67;;
4555;SDS011;2290;48.674;9.018;2023-08-06T10:48:46;1.20;;;0.77;;
4555;SDS011;2290;48.674;9.018;2023-08-06T10:51:16;1.43;;;0.77;;
4555;SDS011;2290;48.674;9.018;2023-08-06T10:53:48;1.77;;;0.80;;
4555;SDS011;2290;48.674;9.018;2023-08-06T10:56:18;1.20;;;0.60;;
4555;SDS011;2290;48.674;9.018;2023-08-06T10:58:45;1.10;;;0.80;;
4555;SDS011;2290;48.674;9.018;2023-08-06T11:01:13;0.90;;;0.70;;
4555;SDS011;2290;48.674;9.018;2023-08-06T11:03:41;1.00;;;0.70;;
4555;SDS011;2290;48.674;9.018;2023-08-06T11:06:29;0.83;;;0.70;;
4555;SDS011;2290;48.674;9.018;2023-08-06T11:09:36;0.90;;;0.77;;
4555;SDS011;2290;48.674;9.018;2023-08-06T11:12:43;0.90;;;0.70;;
4555;SDS011;2290;48.674;9.018;2023-08-06T11:15:12;0.90;;;0.70;;
4555;SDS011;2290;48.674;9.018;2023-08-06T11:17:39;2.00;;;0.80;;
4555;SDS011;2290;48.674;9.018;2023-08-06T11:20:11;0.80;;;0.70;;
4555;SDS011;2290;48.674;9.018;2023-08-06T11:22:41;1.03;;;0.80;;
4555;SDS011;2290;48.674;9.018;2023-08-06T11:25:44;0.90;;;0.70;;
4555;SDS011;2290;48.674;9.018;2023-08-06T11:28:34;3.13;;;0.90;;
4555;SDS011;2290;48.674;9.018;2023-08-06T11:31:28;1.17;;;0.80;;
4555;SDS011;2290;48.674;9.018;2023-08-06T11:34:05;1.20;;;0.80;;
4555;SDS011;2290;48.674;9.018;2023-08-06T11:36:31;0.93;;;0.83;;
4555;SDS011;2290;48.674;9.018;2023-08-06T11:39:00;1.33;;;0.97;;
4555;SDS011;2290;48.674;9.018;2023-08-06T11:41:28;1.20;;;0.97;;
4555;SDS011;2290;48.674;9.018;2023-08-06T11:43:54;1.00;;;0.80;;
4555;SDS011;2290;48.674;9.018;2023-08-06T11:46:19;1.10;;;1.00;;
4555;SDS011;2290;48.674;9.018;2023-08-06T11:48:54;1.60;;;0.87;;
4555;SDS011;2290;48.674;9.018;2023-08-06T11:51:23;1.70;;;0.87;;
4555;SDS011;2290;48.674;9.018;2023-08-06T11:53:56;1.00;;;0.77;;
4555;SDS011;2290;48.674;9.018;2023-08-06T11:56:22;1.43;;;0.90;;
4555;SDS011;2290;48.674;9.018;2023-08-06T11:58:50;1.97;;;1.73;;
4555;SDS011;2290;48.674;9.018;2023-08-06T12:01:49;2.30;;;1.53;;
4555;SDS011;2290;48.674;9.018;2023-08-06T12:04:18;1.13;;;0.90;;
4555;SDS011;2290;48.674;9.018;2023-08-06T12:06:55;2.60;;;2.40;;
4555;SDS011;2290;48.674;9.018;2023-08-06T12:09:50;1.20;;;0.80;;
4555;SDS011;2290;48.674;9.018;2023-08-06T12:12:29;1.30;;;1.20;;
4555;SDS011;2290;48.674;9.018;2023-08-06T12:15:05;2.63;;;2.43;;
4555;SDS011;2290;48.674;9.018;2023-08-06T12:18:02;1.20;;;0.90;;
4555;SDS011;2290;48.674;9.018;2023-08-06T12:20:31;1.30;;;1.00;;
4555;SDS011;2290;48.674;9.018;2023-08-06T12:29:17;1.00;;;0.90;;
4555;SDS011;2290;48.674;9.018;2023-08-06T12:32:50;1.73;;;1.20;;
4555;SDS011;2290;48.674;9.018;2023-08-06T12:36:27;1.00;;;0.90;;
4555;SDS011;2290;48.674;9.018;2023-08-06T12:39:25;1.93;;;0.90;;
4555;SDS011;2290;48.674;9.018;2023-08-06T12:41:56;1.10;;;0.93;;
4555;SDS011;2290;48.674;9.018;2023-08-06T12:44:39;1.30;;;1.00;;
4555;SDS011;2290;48.674;9.018;2023-08-06T12:47:06;1.20;;;1.00;;
4555;SDS011;2290;48.674;9.018;2023-08-06T12:49:35;1.10;;;1.00;;
4555;SDS011;2290;48.674;9.018;2023-08-06T12:52:08;1.20;;;1.00;;
4555;SDS011;2290;48.674;9.018;2023-08-06T12:54:57;1.47;;;1.10;;
4555;SDS011;2290;48.674;9.018;2023-08-06T12:57:23;1.30;;;0.80;;
4555;SDS011;2290;48.674;9.018;2023-08-06T12:59:54;1.10;;;0.90;;
4555;SDS011;2290;48.674;9.018;2023-08-06T13:02:25;1.10;;;1.00;;
4555;SDS011;2290;48.674;9.018;2023-08-06T13:05:00;1.40;;;1.30;;
4555;SDS011;2290;48.674;9.018;2023-08-06T13:07:31;1.60;;;1.00;;
4555;SDS011;2290;48.674;9.018;2023-08-06T13:09:59;2.23;;;1.10;;
4555;SDS011;2290;48.674;9.018;2023-08-06T13:12:25;1.23;;;1.00;;
4555;SDS011;2290;48.674;9.018;2023-08-06T13:14:50;1.53;;;1.00;;
4555;SDS011;2290;48.674;9.018;2023-08-06T13:17:18;1.20;;;1.10;;
4555;SDS011;2290;48.674;9.018;2023-08-06T13:19:43;1.20;;;1.07;;
4555;SDS011;2290;48.674;9.018;2023-08-06T13:22:09;1.20;;;1.10;;
4555;SDS011;2290;48.674;9.018;2023-08-06T13:24:41;1.90;;;0.93;;
4555;SDS011;2290;48.674;9.018;2023-08-06T13:27:40;1.10;;;1.00;;
4555;SDS011;2290;48.674;9.018;2023-08-06T13:30:20;1.00;;;0.90;;
4555;SDS011;2290;48.674;9.018;2023-08-06T13:33:12;1.13;;;0.87;;
4555;SDS011;2290;48.674;9.018;2023-08-06T13:35:58;1.20;;;0.87;;
4555;SDS011;2290;48.674;9.018;2023-08-06T13:38:25;1.57;;;1.00;;
4555;SDS011;2290;48.674;9.018;2023-08-06T13:40:54;1.70;;;1.20;;
4555;SDS011;2290;48.674;9.018;2023-08-06T13:43:20;1.40;;;1.10;;
4555;SDS011;2290;48.674;9.018;2023-08-06T13:45:51;1.27;;;1.17;;
4555;SDS011;2290;48.674;9.018;2023-08-06T13:48:17;1.20;;;0.90;;
4555;SDS011;2290;48.674;9.018;2023-08-06T13:50:43;1.10;;;0.80;;
4555;SDS011;2290;48.674;9.018;2023-08-06T13:53:15;1.40;;;1.20;;
4555;SDS011;2290;48.674;9.018;2023-08-06T13:55:41;1.00;;;0.90;;
4555;SDS011;2290;48.674;9.018;2023-08-06T13:58:08;2.80;;;0.90;;
4555;SDS011;2290;48.674;9.018;2023-08-06T14:00:43;1.20;;;1.10;;
4555;SDS011;2290;48.674;9.018;2023-08-06T14:03:11;2.63;;;1.10;;
4555;SDS011;2290;48.674;9.018;2023-08-06T14:05:39;1.43;;;0.90;;
4555;SDS011;2290;48.674;9.018;2023-08-06T14:08:16;1.63;;;1.07;;
4555;SDS011;2290;48.674;9.018;2023-08-06T14:10:45;1.20;;;1.00;;
4555;SDS011;2290;48.674;9.018;2023-08-06T14:13:12;1.10;;;1.00;;
4555;SDS011;2290;48.674;9.018;2023-08-06T14:15:39;1.20;;;1.00;;
4555;SDS011;2290;48.674;9.018;2023-08-06T14:21:54;1.30;;;1.10;;
4555;SDS011;2290;48.674;9.018;2023-08-06T14:24:23;1.00;;;0.90;;
4555;SDS011;2290;48.674;9.018;2023-08-06T14:27:12;1.43;;;1.00;;
4555;SDS011;2290;48.674;9.018;2023-08-06T14:30:00;1.30;;;1.10;;
4555;SDS011;2290;48.674;9.018;2023-08-06T14:32:55;1.10;;;1.00;;
4555;SDS011;2290;48.674;9.018;2023-08-06T14:35:28;1.10;;;1.00;;
4555;SDS011;2290;48.674;9.018;2023-08-06T14:37:54;1.20;;;1.07;;
4555;SDS011;2290;48.674;9.018;2023-08-06T14:40:19;6.00;;;1.40;;
4555;SDS011;2290;48.674;9.018;2023-08-06T14:42:46;1.40;;;1.07;;
4555;SDS011;2290;48.674;9.018;2023-08-06T14:45:14;1.53;;;1.00;;
4555;SDS011;2290;48.674;9.018;2023-08-06T14:47:44;1.20;;;1.00;;
4555;SDS011;2290;48.674;9.018;2023-08-06T14:50:13;1.00;;;0.90;;
4555;SDS011;2290;48.674;9.018;2023-08-06T14:52:42;1.00;;;0.90;;
4555;SDS011;2290;48.674;9.018;2023-08-06T14:55:09;1.40;;;1.17;;
4555;SDS011;2290;48.674;9.018;2023-08-06T14:57:50;1.30;;;1.00;;
4555;SDS011;2290;48.674;9.018;2023-08-06T15:00:16;1.10;;;0.90;;
4555;SDS011;2290;48.674;9.018;2023-08-06T15:02:49;1.00;;;0.90;;
4555;SDS011;2290;48.674;9.018;2023-08-06T15:05:25;1.40;;;1.03;;
4555;SDS011;2290;48.674;9.018;2023-08-06T15:07:51;1.00;;;0.80;;
4555;SDS011;2290;48.674;9.018;2023-08-06T15:10:19;1.10;;;1.00;;
4555;SDS011;2290;48.674;9.018;2023-08-06T15:13:30;1.80;;;1.23;;
4555;SDS011;2290;48.674;9.018;2023-08-06T15:15:56;1.03;;;0.90;;
4555;SDS011;2290;48.674;9.018;2023-08-06T15:18:23;1.87;;;0.90;;
4555;SDS011;2290;48.674;9.018;2023-08-06T15:21:21;1.23;;;1.07;;
4555;SDS011;2290;48.674;9.018;2023-08-06T15:24:34;1.67;;;0.97;;
4555;SDS011;2290;48.674;9.018;2023-08-06T15:27:01;1.30;;;1.10;;
4555;SDS011;2290;48.674;9.018;2023-08-06T15:29:27;1.00;;;0.90;;
4555;SDS011;2290;48.674;9.018;2023-08-06T15:31:52;1.10;;;1.00;;
4555;SDS011;2290;48.674;9.018;2023-08-06T15:34:18;1.27;;;1.10;;
4555;SDS011;2290;48.674;9.018;2023-08-06T15:36:43;1.50;;;1.10;;
4555;SDS011;2290;48.674;9.018;2023-08-06T15:39:09;4.20;;;1.00;;
4555;SDS011;2290;48.674;9.018;2023-08-06T15:41:34;1.20;;;1.03;;
4555;SDS011;2290;48.674;9.018;2023-08-06T15:44:00;2.23;;;1.00;;
4555;SDS011;2290;48.674;9.018;2023-08-06T15:46:25;1.23;;;1.13;;
4555;SDS011;2290;48.674;9.018;2023-08-06T15:48:51;1.20;;;1.00;;
4555;SDS011;2290;48.674;9.018;2023-08-06T15:51:16;1.23;;;1.00;;
4555;SDS011;2290;48.674;9.018;2023-08-06T15:53:42;1.50;;;1.10;;
4555;SDS011;2290;48.674;9.018;2023-08-06T15:56:08;1.17;;;1.03;;
4555;SDS011;2290;48.674;9.018;2023-08-06T15:58:34;1.70;;;1.10;;
4555;SDS011;2290;48.674;9.018;2023-08-06T16:00:59;1.20;;;0.93;;
4555;SDS011;2290;48.674;9.018;2023-08-06T16:03:25;1.10;;;1.00;;
4555;SDS011;2290;48.674;9.018;2023-08-06T16:05:51;1.20;;;1.00;;
4555;SDS011;2290;48.674;9.018;2023-08-06T16:08:16;1.13;;;1.00;;
4555;SDS011;2290;48.674;9.018;2023-08-06T16:10:42;2.50;;;1.13;;
4555;SDS011;2290;48.674;9.018;2023-08-06T16:13:09;1.20;;;1.10;;